^^
Datos históricos de la estación: Murcia-Puente Tocinos
Diario Informe para Septiembre 25, 2019 Unidades:  Métrico    Ingés   Ambas
Diario Semanal Mensual Anual
  Máxima: Mínima: Promedio:
Temperatura: 31.2 °C 21.4 °C 25.4 °C
Punto de rocio: 20 °C 17 °C 18.7 °C
Humedad: 87% 48.1% 68%
Velocidad viento: 19km/h 0km/h 8.7km/h
Racha viento: 37km/h - -
Viento- - Este
Presión: 1015.6 hPa 1012.5 hPa -
Precipitación: 0.0 mm    
 
 
Tabla de datos para Septiembre 25, 2019
Hora Temperatura Punto de rocio Presión Viento Velocidad viento Racha viento Humedad Intensidad lluvia(por hora) Nubes
00:04 23.3 °C 18.4 °C 1013.5 hPa NNE 8.7 km/h 14.8 km/h 73.8% 0.0 mm
00:09 23.2 °C 18.7 °C 1013.5 hPa NNE 9 km/h 15.6 km/h 75.6% 0.0 mm
00:14 23.1 °C 18.9 °C 1013.5 hPa NE 9.5 km/h 16.7 km/h 77.2% 0.0 mm
00:19 22.9 °C 18.8 °C 1013.5 hPa NE 9.8 km/h 16.1 km/h 78% 0.0 mm
00:24 22.8 °C 19 °C 1013.5 hPa NE 10.3 km/h 16.7 km/h 78.9% 0.0 mm
00:29 22.8 °C 19 °C 1013.5 hPa NE 10.2 km/h 16.1 km/h 79.5% 0.0 mm
00:34 22.7 °C 19.1 °C 1013.5 hPa NE 10 km/h 15.6 km/h 80% 0.0 mm
00:39 22.7 °C 19.2 °C 1013.4 hPa NE 9.5 km/h 16.1 km/h 80.9% 0.0 mm
00:44 22.6 °C 19.2 °C 1013.4 hPa NE 8.7 km/h 14.8 km/h 81% 0.0 mm
00:49 22.5 °C 19.2 °C 1013.4 hPa NNE 8.6 km/h 15.6 km/h 81.3% 0.0 mm
00:54 22.4 °C 19.2 °C 1013.4 hPa NNE 8.4 km/h 16.4 km/h 82% 0.0 mm
00:59 22.3 °C 19.2 °C 1013.4 hPa NNE 9 km/h 18.5 km/h 82.7% 0.0 mm
01:04 22.3 °C 19.3 °C 1013.4 hPa NNE 10 km/h 19.3 km/h 83% 0.0 mm
01:09 22.2 °C 19.3 °C 1013.4 hPa NNE 9.8 km/h 14.8 km/h 83.8% 0.0 mm
01:14 22.2 °C 19.4 °C 1013.4 hPa NNE 9.5 km/h 14.8 km/h 84% 0.0 mm
01:19 22.1 °C 19.3 °C 1013.4 hPa NE 9.2 km/h 14.8 km/h 84% 0.0 mm
01:24 22.1 °C 19.3 °C 1013.4 hPa NNE 8.7 km/h 14.8 km/h 84% 0.0 mm
01:29 22.1 °C 19.3 °C 1013.4 hPa NE 9 km/h 14.5 km/h 84% 0.0 mm
01:34 22.1 °C 19.3 °C 1013.4 hPa NE 9.5 km/h 14.5 km/h 84% 0.0 mm
01:39 22.1 °C 19.3 °C 1013.3 hPa NE 9.1 km/h 14.8 km/h 84.2% 0.0 mm
01:44 22 °C 19.3 °C 1013.3 hPa NE 8.4 km/h 16.7 km/h 85% 0.0 mm
01:49 22 °C 19.3 °C 1013.3 hPa NE 8.5 km/h 16.1 km/h 85% 0.0 mm
01:54 21.9 °C 19.3 °C 1013.3 hPa NE 8.7 km/h 11.9 km/h 85% 0.0 mm
01:59 21.9 °C 19.3 °C 1013.3 hPa NE 8.6 km/h 12.2 km/h 85% 0.0 mm
02:04 21.9 °C 19.3 °C 1013.3 hPa NE 8.4 km/h 13.7 km/h 85.2% 0.0 mm
02:09 21.9 °C 19.4 °C 1013.1 hPa NE 8.4 km/h 14.5 km/h 86% 0.0 mm
02:14 21.9 °C 19.4 °C 1013.1 hPa NE 8.4 km/h 12.9 km/h 86% 0.0 mm
02:19 21.8 °C 19.4 °C 1013.1 hPa NE 8.4 km/h 11.9 km/h 86% 0.0 mm
02:24 21.8 °C 19.3 °C 1012.8 hPa NE 8.4 km/h 13 km/h 86% 0.0 mm
02:29 21.7 °C 19.3 °C 1012.8 hPa NE 8.4 km/h 14.8 km/h 86% 0.0 mm
02:34 21.7 °C 19.3 °C 1012.8 hPa NE 8.4 km/h 14.5 km/h 86% 0.0 mm
02:39 21.7 °C 19.3 °C 1012.8 hPa NNE 7.8 km/h 11.3 km/h 86% 0.0 mm
02:44 21.6 °C 19.1 °C 1012.8 hPa NNE 6.9 km/h 9.7 km/h 86% 0.0 mm
02:49 21.5 °C 19.2 °C 1012.9 hPa NE 6.1 km/h 9.7 km/h 87% 0.0 mm
02:54 21.5 °C 19.2 °C 1012.9 hPa NNE 4.7 km/h 8 km/h 87% 0.0 mm
02:59 21.6 °C 19.3 °C 1012.9 hPa NNE 3.9 km/h 6.4 km/h 87% 0.0 mm
03:04 21.6 °C 19.3 °C 1012.9 hPa NNE 2.9 km/h 4.8 km/h 87% 0.0 mm
03:09 21.6 °C 19.3 °C 1012.8 hPa NNE 1.7 km/h 6.4 km/h 87% 0.0 mm
03:14 21.6 °C 19.3 °C 1012.8 hPa Calm   8 km/h 86.7% 0.0 mm
03:19 21.7 °C 19.3 °C 1012.9 hPa NE 0.9 km/h 7.4 km/h 86% 0.0 mm
03:24 21.7 °C 19.3 °C 1012.9 hPa NE 2.2 km/h 8 km/h 86% 0.0 mm
03:29 21.7 °C 19.3 °C 1012.9 hPa NE 1.4 km/h 6.4 km/h 86% 0.0 mm
03:34 21.7 °C 19.3 °C 1012.9 hPa Calm   8 km/h 86% 0.0 mm
03:39 21.7 °C 19.3 °C 1012.9 hPa NO 0.9 km/h 8 km/h 86% 0.0 mm
03:44 21.7 °C 19.3 °C 1012.9 hPa NO 2.2 km/h 4.8 km/h 86% 0.0 mm
03:49 21.7 °C 19.3 °C 1012.9 hPa NO 1.3 km/h   86% 0.0 mm
03:54 21.7 °C 19.3 °C 1012.9 hPa Calm     86% 0.0 mm
03:59 21.7 °C 19.3 °C 1012.9 hPa Calm   3.9 km/h 86% 0.0 mm
04:04 21.8 °C 19.3 °C 1012.9 hPa Calm   3.9 km/h 86% 0.0 mm
04:09 21.8 °C 19.3 °C 1012.8 hPa Calm   3.9 km/h 85.9% 0.0 mm
04:14 21.8 °C 19.2 °C 1012.8 hPa Calm   3.2 km/h 85.3% 0.0 mm
04:19 21.8 °C 19.2 °C 1012.8 hPa Calm     85% 0.0 mm
04:24 21.8 °C 19.2 °C 1012.8 hPa Calm     85% 0.0 mm
04:29 21.8 °C 19.2 °C 1012.8 hPa Calm     85% 0.0 mm
04:34 21.8 °C 19.2 °C 1012.8 hPa Calm   5.8 km/h 85% 0.0 mm
04:39 21.8 °C 19 °C 1012.7 hPa Calm   6.4 km/h 84.5% 0.0 mm
04:44 21.7 °C 18.9 °C 1012.7 hPa Calm   7.6 km/h 83.9% 0.0 mm
04:49 21.7 °C 18.5 °C 1012.7 hPa SE 2 km/h 9.3 km/h 82.5% 0.0 mm
04:54 21.5 °C 18.2 °C 1012.6 hPa SE 5 km/h 9.7 km/h 81.4% 0.0 mm
04:59 21.4 °C 18 °C 1012.6 hPa SSE 4.8 km/h 8 km/h 81.1% 0.0 mm
05:04 21.4 °C 17.9 °C 1012.6 hPa SSE 4.6 km/h 8 km/h 80.5% 0.0 mm
05:09 21.4 °C 17.7 °C 1012.5 hPa Sur 4.7 km/h 8.4 km/h 79.8% 0.0 mm
05:14 21.4 °C 17.6 °C 1012.5 hPa Sur 4.7 km/h 8.4 km/h 79% 0.0 mm
05:19 21.4 °C 17.6 °C 1012.5 hPa SSE 4.7 km/h 8 km/h 78.9% 0.0 mm
05:24 21.5 °C 17.5 °C 1012.5 hPa SSE 4.7 km/h 9.3 km/h 78% 0.0 mm
05:29 21.5 °C 17.5 °C 1012.5 hPa Sur 5.4 km/h 11.1 km/h 78% 0.0 mm
05:34 21.6 °C 17.6 °C 1012.5 hPa SSO 6.5 km/h 11.3 km/h 78% 0.0 mm
05:39 21.6 °C 17.6 °C 1012.5 hPa Sur 6.2 km/h 9.7 km/h 78% 0.0 mm
05:44 21.7 °C 17.6 °C 1012.5 hPa SSE 5.8 km/h 8 km/h 77.5% 0.0 mm
05:49 21.7 °C 17.6 °C 1012.5 hPa Sur 5.5 km/h 8 km/h 77.4% 0.0 mm
05:54 21.7 °C 17.6 °C 1012.5 hPa Sur 5 km/h 9.3 km/h 77.2% 0.0 mm
05:59 21.7 °C 17.6 °C 1012.5 hPa Sur 4.5 km/h 9.7 km/h 77.3% 0.0 mm
06:04 21.7 °C 17.8 °C 1012.6 hPa OSO 3.9 km/h 11.9 km/h 78.3% 0.0 mm
06:09 21.7 °C 17.9 °C 1012.6 hPa SSO 4.2 km/h 11.3 km/h 79% 0.0 mm
06:14 21.7 °C 18 °C 1012.6 hPa SO 4.7 km/h 11.1 km/h 79.3% 0.0 mm
06:19 21.7 °C 17.9 °C 1012.9 hPa SSO 5.4 km/h 13 km/h 79.1% 0.0 mm
06:24 21.7 °C 17.9 °C 1012.9 hPa SSO 6.5 km/h 12.9 km/h 79% 0.0 mm
06:29 21.7 °C 17.9 °C 1012.9 hPa SO 6.6 km/h 11.9 km/h 79% 0.0 mm
06:34 21.7 °C 17.9 °C 1013.1 hPa SO 6.9 km/h 11.3 km/h 78.9% 0.0 mm
06:39 21.7 °C 17.7 °C 1013.1 hPa SO 6.5 km/h 11.3 km/h 78.1% 0.0 mm
06:44 21.7 °C 17.7 °C 1013.1 hPa SO 5.8 km/h 10 km/h 78% 0.0 mm
06:49 21.7 °C 17.7 °C 1013.4 hPa SSO 5.5 km/h 9.7 km/h 78% 0.0 mm
06:54 21.7 °C 17.7 °C 1013.4 hPa SO 5 km/h 9.7 km/h 78% 0.0 mm
06:59 21.7 °C 17.5 °C 1013.4 hPa Sur 4.3 km/h 7.4 km/h 77% 0.0 mm
07:04 21.7 °C 17.4 °C 1013.5 hPa SSE 3.2 km/h 8.4 km/h 77% 0.0 mm
07:09 21.6 °C 17.2 °C 1013.5 hPa SE 3.5 km/h 8.4 km/h 76.3% 0.0 mm
07:14 21.5 °C 17.1 °C 1013.5 hPa SE 3.9 km/h 8 km/h 76% 0.0 mm
07:19 21.5 °C 17.1 °C 1013.5 hPa SE 2.4 km/h 3.2 km/h 76.1% 0.0 mm
07:24 21.6 °C 17.3 °C 1013.5 hPa Calm     76.9% 0.0 mm
07:29 21.7 °C 17.3 °C 1013.5 hPa Calm     76.1% 0.0 mm
07:34 21.7 °C 17.2 °C 1013.7 hPa Calm   5.8 km/h 75.6% 0.0 mm
07:39 21.7 °C 17.1 °C 1013.7 hPa ENE 1.2 km/h 6.4 km/h 75% 0.0 mm
07:44 21.7 °C 17 °C 1013.7 hPa Este 2.9 km/h 6.4 km/h 74.8% 0.0 mm
07:49 21.7 °C 17.1 °C 1013.9 hPa ENE 2.6 km/h 6.4 km/h 74.8% 0.0 mm
07:54 21.9 °C 17.2 °C 1013.9 hPa ENE 2.2 km/h 6.4 km/h 74.4% 0.0 mm
07:59 22.2 °C 17.3 °C 1013.9 hPa NE 2.2 km/h 8 km/h 73.9% 0.0 mm
08:04 22.3 °C 17.3 °C 1014.0 hPa NE 2.2 km/h 8 km/h 73% 0.0 mm
08:09 22.3 °C 17.3 °C 1014.0 hPa NE 3.3 km/h 9.3 km/h 73% 0.0 mm
08:14 22.3 °C 17.3 °C 1014.0 hPa NE 5 km/h 10.3 km/h 73.3% 0.0 mm
08:19 22.4 °C 17.6 °C 1014.1 hPa NE 5 km/h 11.3 km/h 74% 0.0 mm
08:24 22.7 °C 17.6 °C 1014.1 hPa NNE 5 km/h 8 km/h 73.2% 0.0 mm
08:29 22.8 °C 17.6 °C 1014.1 hPa NNE 4.9 km/h 10 km/h 72.5% 0.0 mm
08:34 22.8 °C 17.5 °C 1014.3 hPa NNE 4.7 km/h 9.7 km/h 71.8% 0.0 mm
08:39 22.9 °C 17.2 °C 1014.3 hPa NNE 5.1 km/h 10 km/h 70.3% 0.0 mm
08:44 22.9 °C 17.2 °C 1014.3 hPa NNE 5.8 km/h 9.7 km/h 70.4% 0.0 mm
08:49 23 °C 17.5 °C 1014.5 hPa North 5.8 km/h 9.7 km/h 71% 0.0 mm
08:54 23.2 °C 17.6 °C 1014.5 hPa North 5.8 km/h 9.7 km/h 70.7% 0.0 mm
08:59 23.4 °C 17.6 °C 1014.5 hPa North 4.7 km/h 8.4 km/h 70% 0.0 mm
09:04 23.7 °C 17.8 °C 1014.5 hPa NE 3.2 km/h 10 km/h 69.7% 0.0 mm
09:09 23.8 °C 17.8 °C 1014.4 hPa North 3.8 km/h 9.7 km/h 69.3% 0.0 mm
09:14 24.1 °C 18 °C 1014.4 hPa NNE 4.7 km/h 11.1 km/h 68.7% 0.0 mm
09:19 24.2 °C 18 °C 1014.5 hPa NNE 4.8 km/h 11.3 km/h 68.4% 0.0 mm
09:24 24.2 °C 18 °C 1014.5 hPa NNE 5 km/h 13 km/h 68% 0.0 mm
09:29 24.3 °C 17.9 °C 1014.5 hPa NNE 5.6 km/h 12.9 km/h 67.6% 0.0 mm
09:34 24.4 °C 17.9 °C 1014.5 hPa NE 6.5 km/h 9.7 km/h 67% 0.0 mm
09:39 24.5 °C 18 °C 1014.5 hPa NNE 5.9 km/h 9.7 km/h 67% 0.0 mm
09:44 24.7 °C 18 °C 1014.5 hPa North 5 km/h 9.7 km/h 66.1% 0.0 mm
09:49 24.9 °C 17.9 °C 1014.5 hPa NNO 4.3 km/h 9.3 km/h 65% 0.0 mm
09:54 25 °C 18.1 °C 1014.5 hPa ENE 3.2 km/h 9.7 km/h 65.8% 0.0 mm
09:59 25.2 °C 18.1 °C 1014.5 hPa NE 4.3 km/h 13.7 km/h 64.6% 0.0 mm
10:04 25.4 °C 18.2 °C 1014.5 hPa Este 5.8 km/h 14.5 km/h 64.4% 0.0 mm
10:09 25.5 °C 18.2 °C 1014.4 hPa Este 6 km/h 13 km/h 64.1% 0.0 mm
10:14 25.7 °C 18.3 °C 1014.4 hPa Este 6.5 km/h 14.8 km/h 63.8% 0.0 mm
10:19 25.7 °C 18.2 °C 1014.4 hPa SE 6.5 km/h 16.7 km/h 63.2% 0.0 mm
10:24 25.6 °C 18.2 °C 1014.3 hPa ENE 6.5 km/h 16.1 km/h 63.6% 0.0 mm
10:29 25.7 °C 18.1 °C 1014.3 hPa ENE 6.5 km/h 16.1 km/h 63% 0.0 mm
10:34 25.7 °C 17.9 °C 1014.3 hPa SO 6.5 km/h 9.7 km/h 62% 0.0 mm
10:39 25.8 °C 18 °C 1014.3 hPa SSO 5.7 km/h 8 km/h 61.9% 0.0 mm
10:44 26 °C 17.9 °C 1014.3 hPa ONO 4.7 km/h 8.4 km/h 61% 0.0 mm
10:49 26.1 °C 18.1 °C 1014.3 hPa North 4.3 km/h 10 km/h 61.3% 0.0 mm
10:54 26.3 °C 18.2 °C 1014.3 hPa ENE 3.9 km/h 10.3 km/h 61.4% 0.0 mm
10:59 26.4 °C 18.3 °C 1014.3 hPa NNE 4.3 km/h 11.3 km/h 60.9% 0.0 mm
11:04 26.6 °C 18.1 °C 1014.3 hPa ESE 5 km/h 13 km/h 59.7% 0.0 mm
11:09 26.7 °C 18 °C 1014.3 hPa ESE 5.6 km/h 12.9 km/h 59% 0.0 mm
11:14 26.7 °C 17.9 °C 1014.3 hPa Este 6.5 km/h 11.3 km/h 58.6% 0.0 mm
11:19 26.8 °C 18 °C 1014.3 hPa Este 6.2 km/h 11.1 km/h 58.9% 0.0 mm
11:24 27 °C 17.8 °C 1014.2 hPa ENE 5.8 km/h 11.3 km/h 57.2% 0.0 mm
11:29 27.2 °C 17.9 °C 1014.2 hPa NE 6.1 km/h 11.1 km/h 57% 0.0 mm
11:34 27.2 °C 17.8 °C 1014.2 hPa NNE 6.5 km/h 13 km/h 56.5% 0.0 mm
11:39 27.2 °C 17.8 °C 1014.2 hPa Este 5.9 km/h 12.9 km/h 56.6% 0.0 mm
11:44 27.4 °C 18 °C 1014.2 hPa North 5 km/h 11.1 km/h 56.8% 0.0 mm
11:49 27.6 °C 18 °C 1014.2 hPa NNO 5.3 km/h 11.3 km/h 55.8% 0.0 mm
11:54 27.7 °C 18.1 °C 1014.1 hPa NE 5.8 km/h 11.3 km/h 55.7% 0.0 mm
11:59 28 °C 18.1 °C 1014.1 hPa NE 5.3 km/h 10 km/h 54.9% 0.0 mm
12:04 28.1 °C 18.1 °C 1014.1 hPa NE 4.7 km/h 11.1 km/h 54.3% 0.0 mm
12:09 28.2 °C 18 °C 1013.9 hPa North 5.1 km/h 11.3 km/h 54% 0.0 mm
12:14 28.3 °C 18 °C 1013.9 hPa NNE 5.8 km/h 11.9 km/h 53.8% 0.0 mm
12:19 28.2 °C 17.8 °C 1013.9 hPa NNO 6.1 km/h 13 km/h 53.2% 0.0 mm
12:24 28.2 °C 17.8 °C 1013.9 hPa NNO 6.5 km/h 12.9 km/h 53.2% 0.0 mm
12:29 28.3 °C 17.8 °C 1013.9 hPa North 5.7 km/h 11.3 km/h 53% 0.0 mm
12:34 28.5 °C 17.9 °C 1013.9 hPa ESE 4.7 km/h 8.7 km/h 52.8% 0.0 mm
12:39 28.6 °C 17.9 °C 1013.8 hPa SO 4.7 km/h 9.7 km/h 52.6% 0.0 mm
12:44 28.7 °C 18.1 °C 1013.8 hPa North 4.7 km/h 10 km/h 52.7% 0.0 mm
12:49 28.8 °C 18.2 °C 1013.8 hPa NNE 5.4 km/h 11.1 km/h 52.7% 0.0 mm
12:54 29 °C 18.2 °C 1013.8 hPa Este 6.5 km/h 11.3 km/h 52.3% 0.0 mm
12:59 29.3 °C 18.2 °C 1013.8 hPa Sur 5.3 km/h 11.3 km/h 51.3% 0.0 mm
13:04 29.6 °C 18.3 °C 1013.8 hPa NNO 3.9 km/h 11.9 km/h 50.4% 0.0 mm
13:09 29.9 °C 18.4 °C 1013.5 hPa NNE 4.2 km/h 11.3 km/h 50% 0.0 mm
13:14 29.9 °C 18.4 °C 1013.5 hPa NE 4.7 km/h 14.8 km/h 50% 0.0 mm
13:19 29.7 °C 18.2 °C 1013.5 hPa NE 5.6 km/h 17.2 km/h 50.2% 0.0 mm
13:24 29.7 °C 18.5 °C 1013.5 hPa NE 6.9 km/h 22.2 km/h 50.9% 0.0 mm
13:29 29.7 °C 18.5 °C 1013.5 hPa NE 7.6 km/h 22.5 km/h 51% 0.0 mm
13:34 29.8 °C 18.5 °C 1013.5 hPa NE 8.7 km/h 17.2 km/h 50.6% 0.0 mm
13:39 30.1 °C 18.6 °C 1013.4 hPa NE 8.6 km/h 17.7 km/h 50% 0.0 mm
13:44 30.2 °C 18.6 °C 1013.4 hPa NE 8.4 km/h 17.2 km/h 50.2% 0.0 mm
13:49 30.2 °C 18.6 °C 1013.4 hPa Este 8 km/h 17.7 km/h 50% 0.0 mm
13:54 30.4 °C 18.7 °C 1013.3 hPa NNE 7.6 km/h 13 km/h 49.7% 0.0 mm
13:59 30.6 °C 18.8 °C 1013.3 hPa NNE 7.3 km/h 19 km/h 49.3% 0.0 mm
14:04 30.7 °C 18.6 °C 1013.3 hPa North 6.9 km/h 19.3 km/h 48.3% 0.0 mm
14:09 30.9 °C 18.7 °C 1013.1 hPa NE 6.5 km/h 15.6 km/h 48.1% 0.0 mm
14:14 31 °C 18.9 °C 1013.1 hPa Este 5.8 km/h 16.7 km/h 48.4% 0.0 mm
14:19 31.1 °C 19 °C 1013.1 hPa ENE 6.9 km/h 16.7 km/h 48.7% 0.0 mm
14:24 31.2 °C 19.4 °C 1013.0 hPa Este 8.4 km/h 19 km/h 49.5% 0.0 mm
14:29 31 °C 19.9 °C 1013.0 hPa ESE 9.8 km/h 33.3 km/h 51.9% 0.0 mm
14:34 30.7 °C 20 °C 1013.1 hPa ESE 12.2 km/h 33.8 km/h 52.9% 0.0 mm
14:39 30.3 °C 19.8 °C 1013.1 hPa ESE 14.2 km/h 32.2 km/h 53.6% 0.0 mm
14:44 30.3 °C 19.9 °C 1013.1 hPa Este 17.2 km/h 32.2 km/h 53.9% 0.0 mm
14:49 30.2 °C 19.9 °C 1013.1 hPa ESE 16.9 km/h 29 km/h 54.1% 0.0 mm
14:54 30.2 °C 20 °C 1013.0 hPa ESE 16.4 km/h 31.7 km/h 54.4% 0.0 mm
14:59 30.3 °C 19.9 °C 1013.0 hPa ESE 16.3 km/h 32.2 km/h 53.8% 0.0 mm
15:04 30.3 °C 19.9 °C 1013.1 hPa ESE 16.1 km/h 27.8 km/h 54% 0.0 mm
15:09 30.2 °C 19.9 °C 1013.1 hPa ESE 17 km/h 28.6 km/h 54.2% 0.0 mm
15:14 30.2 °C 19.9 °C 1013.1 hPa ESE 18.4 km/h 29.6 km/h 54.1% 0.0 mm
15:19 30.3 °C 19.9 °C 1013.1 hPa ESE 17.6 km/h 29 km/h 54.1% 0.0 mm
15:24 30.3 °C 19.8 °C 1012.9 hPa SE 16.4 km/h 28.2 km/h 53.5% 0.0 mm
15:29 30.3 °C 19.8 °C 1012.9 hPa ESE 16.3 km/h 30.6 km/h 53.3% 0.0 mm
15:34 30.3 °C 19.8 °C 1013.0 hPa ESE 16.1 km/h 30.6 km/h 53.4% 0.0 mm
15:39 30.1 °C 19.7 °C 1013.0 hPa ESE 17 km/h 29 km/h 53.8% 0.0 mm
15:44 30 °C 19.6 °C 1013.0 hPa ESE 18.4 km/h 27.8 km/h 54% 0.0 mm
15:49 30 °C 19.4 °C 1013.0 hPa SE 18.6 km/h 30.6 km/h 53.3% 0.0 mm
15:54 29.8 °C 19.5 °C 1013.0 hPa SE 19 km/h 30.6 km/h 53.9% 0.0 mm
15:59 30 °C 19.5 °C 1013.0 hPa SE 17.9 km/h 25.9 km/h 53.5% 0.0 mm
16:04 30.2 °C 19.6 °C 1013.0 hPa SE 16.4 km/h 25.7 km/h 53% 0.0 mm
16:09 30.3 °C 19.7 °C 1013.0 hPa ESE 15.3 km/h 24.1 km/h 53.1% 0.0 mm
16:14 30.3 °C 19.7 °C 1013.0 hPa ESE 13.7 km/h 24.1 km/h 53.2% 0.0 mm
16:19 30 °C 19.7 °C 1013.0 hPa ESE 13.4 km/h 22.5 km/h 53.9% 0.0 mm
16:24 30.1 °C 19.8 °C 1013.0 hPa Este 13 km/h 24.1 km/h 54.3% 0.0 mm
16:29 30.2 °C 19.9 °C 1013.0 hPa ENE 12.6 km/h 24.1 km/h 54% 0.0 mm
16:34 30.2 °C 20 °C 1013.0 hPa ENE 11.9 km/h 24.1 km/h 54.5% 0.0 mm
16:39 30.2 °C 20 °C 1012.9 hPa ENE 11.6 km/h 20.9 km/h 54.5% 0.0 mm
16:44 30.2 °C 20 °C 1012.9 hPa ENE 11.1 km/h 22.2 km/h 54.1% 0.0 mm
16:49 29.9 °C 19.8 °C 1012.9 hPa NE 11.6 km/h 22.5 km/h 54.9% 0.0 mm
16:54 29.8 °C 19.8 °C 1012.9 hPa ENE 12.2 km/h 25.9 km/h 55.2% 0.0 mm
16:59 29.7 °C 20 °C 1012.9 hPa NE 13.3 km/h 27.8 km/h 55.9% 0.0 mm
17:04 29.7 °C 20 °C 1012.9 hPa NE 14.8 km/h 27.4 km/h 56% 0.0 mm
17:09 29.8 °C 19.9 °C 1012.7 hPa NE 14.5 km/h 24.1 km/h 55.6% 0.0 mm
17:14 29.9 °C 19.8 °C 1012.7 hPa NE 14 km/h 28.2 km/h 54.7% 0.0 mm
17:19 29.7 °C 19.5 °C 1012.7 hPa NE 15.3 km/h 33.3 km/h 54.5% 0.0 mm
17:24 29.4 °C 19.4 °C 1012.6 hPa NE 17.2 km/h 33.8 km/h 55% 0.0 mm
17:29 29.4 °C 19.2 °C 1012.6 hPa NE 17.7 km/h 28.2 km/h 54.5% 0.0 mm
17:34 29.2 °C 19.3 °C 1012.6 hPa NE 18.4 km/h 27.4 km/h 55% 0.0 mm
17:39 29.3 °C 19.2 °C 1012.6 hPa NE 17.6 km/h 33.3 km/h 54.4% 0.0 mm
17:44 29.2 °C 18.9 °C 1012.6 hPa NE 16.4 km/h 33.8 km/h 54% 0.0 mm
17:49 29.1 °C 18.8 °C 1012.7 hPa NE 17 km/h 30.6 km/h 54% 0.0 mm
17:54 28.9 °C 18.7 °C 1012.7 hPa NE 18 km/h 37 km/h 54% 0.0 mm
17:59 28.7 °C 18.7 °C 1012.7 hPa NE 18.5 km/h 37 km/h 55% 0.0 mm
18:04 28.9 °C 18.7 °C 1012.7 hPa NE 19 km/h 30.9 km/h 54% 0.0 mm
18:09 28.8 °C 18.6 °C 1012.6 hPa NE 17.9 km/h 32.2 km/h 54% 0.0 mm
18:14 28.8 °C 18.5 °C 1012.6 hPa NE 16.4 km/h 29.1 km/h 54% 0.0 mm
18:19 28.6 °C 18.6 °C 1012.6 hPa NE 17.5 km/h 29.6 km/h 54.9% 0.0 mm
18:24 28.4 °C 18.7 °C 1012.6 hPa NE 19 km/h 30.6 km/h 55.5% 0.0 mm
18:29 28.5 °C 18.6 °C 1012.6 hPa NE 17.9 km/h 31.5 km/h 55% 0.0 mm
18:34 28.4 °C 18.8 °C 1012.6 hPa NE 16.4 km/h 32.2 km/h 55.7% 0.0 mm
18:39 28.4 °C 18.7 °C 1012.5 hPa NE 16.1 km/h 29.6 km/h 55.6% 0.0 mm
18:44 28.2 °C 18.6 °C 1012.5 hPa NE 15.6 km/h 33.3 km/h 55.9% 0.0 mm
18:49 28 °C 18.7 °C 1012.5 hPa NE 16.2 km/h 33.8 km/h 56.9% 0.0 mm
18:54 28 °C 18.7 °C 1012.5 hPa NE 17.2 km/h 28.2 km/h 57% 0.0 mm
18:59 28 °C 18.7 °C 1012.5 hPa NE 16.9 km/h 31.7 km/h 57% 0.0 mm
19:04 27.8 °C 18.7 °C 1012.5 hPa NE 16.4 km/h 32.2 km/h 57.9% 0.0 mm
19:09 27.7 °C 18.7 °C 1012.5 hPa NE 17.1 km/h 30.6 km/h 58% 0.0 mm
19:14 27.7 °C 18.7 °C 1012.5 hPa NE 18 km/h 27.4 km/h 58% 0.0 mm
19:19 27.7 °C 18.7 °C 1012.5 hPa NE 17 km/h 26.2 km/h 58% 0.0 mm
19:24 27.6 °C 18.7 °C 1012.5 hPa NE 15.6 km/h 25.7 km/h 58.3% 0.0 mm
19:29 27.5 °C 18.8 °C 1012.5 hPa ENE 15.8 km/h 29.8 km/h 59% 0.0 mm
19:34 27.4 °C 18.7 °C 1012.8 hPa NE 16.1 km/h 30.6 km/h 59% 0.0 mm
19:39 27.3 °C 18.8 °C 1012.8 hPa NE 16.2 km/h 29.6 km/h 59.8% 0.0 mm
19:44 27.3 °C 18.7 °C 1012.8 hPa NE 16.4 km/h 29 km/h 59.6% 0.0 mm
19:49 27.2 °C 18.7 °C 1012.9 hPa NE 16.4 km/h 28.2 km/h 59.9% 0.0 mm
19:54 27.1 °C 18.7 °C 1012.9 hPa NE 16.4 km/h 27.8 km/h 60% 0.0 mm
19:59 27.1 °C 18.7 °C 1012.9 hPa NE 16.3 km/h 24.1 km/h 60.1% 0.0 mm
20:04 27.1 °C 18.9 °C 1012.9 hPa NE 16.1 km/h 25.9 km/h 60.7% 0.0 mm
20:09 27.1 °C 18.9 °C 1012.7 hPa NE 15.1 km/h 25.7 km/h 61% 0.0 mm
20:14 27 °C 18.9 °C 1012.7 hPa NE 13.7 km/h 24.5 km/h 61.3% 0.0 mm
20:19 26.9 °C 19 °C 1012.8 hPa NE 13.7 km/h 27 km/h 62% 0.0 mm
20:24 26.8 °C 19 °C 1012.8 hPa NE 13.7 km/h 27.8 km/h 62.1% 0.0 mm
20:29 26.6 °C 19.1 °C 1012.8 hPa NE 14.7 km/h 28.2 km/h 63.4% 0.0 mm
20:34 26.3 °C 19 °C 1013.0 hPa NE 16.1 km/h 28.2 km/h 64.1% 0.0 mm
20:39 26.3 °C 19.2 °C 1013.0 hPa NE 15.9 km/h 27.4 km/h 65% 0.0 mm
20:44 26.1 °C 19.1 °C 1013.0 hPa NE 15.6 km/h 29.6 km/h 65.5% 0.0 mm
20:49 25.9 °C 19.2 °C 1013.4 hPa NE 15.8 km/h 29 km/h 66.6% 0.0 mm
20:54 25.7 °C 19.2 °C 1013.4 hPa NE 16.1 km/h 27.4 km/h 67% 0.0 mm
20:59 25.7 °C 19.2 °C 1013.4 hPa NE 14.8 km/h 22.5 km/h 67.4% 0.0 mm
21:04 25.7 °C 19.3 °C 1013.5 hPa NE 13 km/h 21.7 km/h 68% 0.0 mm
21:09 25.6 °C 19.2 °C 1013.5 hPa NE 12.7 km/h 22.5 km/h 68% 0.0 mm
21:14 25.4 °C 19 °C 1013.5 hPa ENE 12.2 km/h 25.9 km/h 68% 0.0 mm
21:19 25.2 °C 19 °C 1013.8 hPa NE 12.2 km/h 25.7 km/h 68.6% 0.0 mm
21:24 25.1 °C 19 °C 1013.8 hPa ENE 12.2 km/h 24.1 km/h 69% 0.0 mm
21:29 24.9 °C 19 °C 1013.8 hPa NE 12.2 km/h 24.1 km/h 69.8% 0.0 mm
21:34 24.7 °C 19 °C 1014.0 hPa NE 12.2 km/h 22.5 km/h 70.3% 0.0 mm
21:39 24.7 °C 19.1 °C 1014.0 hPa ENE 12.6 km/h 24.1 km/h 71% 0.0 mm
21:44 24.6 °C 19 °C 1014.0 hPa NE 13 km/h 24.1 km/h 71% 0.0 mm
21:49 24.5 °C 19 °C 1014.2 hPa ENE 11.8 km/h 19.3 km/h 71.1% 0.0 mm
21:54 24.4 °C 19 °C 1014.2 hPa ENE 10 km/h 17.7 km/h 72% 0.0 mm
21:59 24.4 °C 19 °C 1014.2 hPa ENE 9.4 km/h 16.1 km/h 72% 0.0 mm
22:04 24.3 °C 19 °C 1014.6 hPa NE 8.7 km/h 14.5 km/h 72% 0.0 mm
22:09 24.3 °C 19 °C 1014.6 hPa NE 8.3 km/h 14.8 km/h 72.5% 0.0 mm
22:14 24.2 °C 19.1 °C 1014.6 hPa ENE 7.6 km/h 18 km/h 73% 0.0 mm
22:19 24.1 °C 19.1 °C 1014.7 hPa NE 8 km/h 19.3 km/h 73.5% 0.0 mm
22:24 24.1 °C 19.1 °C 1014.7 hPa NE 8.7 km/h 14.5 km/h 74% 0.0 mm
22:29 24 °C 19.1 °C 1014.7 hPa NE 8.3 km/h 13 km/h 74% 0.0 mm
22:34 24 °C 19 °C 1015.1 hPa NE 7.6 km/h 14.8 km/h 74% 0.0 mm
22:39 23.9 °C 19 °C 1015.1 hPa NE 8 km/h 14.5 km/h 74% 0.0 mm
22:44 23.9 °C 19.1 °C 1015.1 hPa NE 8.7 km/h 16.7 km/h 74.7% 0.0 mm
22:49 23.8 °C 19.1 °C 1015.4 hPa NE 9 km/h 16.4 km/h 75% 0.0 mm
22:54 23.7 °C 19.2 °C 1015.4 hPa NE 9.5 km/h 16.7 km/h 75.8% 0.0 mm
22:59 23.7 °C 19.2 °C 1015.4 hPa NE 8.7 km/h 16.1 km/h 76% 0.0 mm
23:04 23.7 °C 19.2 °C 1015.5 hPa NE 7.6 km/h 11.3 km/h 76% 0.0 mm
23:09 23.7 °C 19.2 °C 1015.5 hPa NNE 7.4 km/h 11.3 km/h 76% 0.0 mm
23:14 23.7 °C 19.2 °C 1015.5 hPa NE 6.9 km/h 11.1 km/h 76.4% 0.0 mm
23:19 23.6 °C 19.3 °C 1015.6 hPa NE 6.8 km/h 11.9 km/h 77% 0.0 mm
23:24 23.4 °C 19.3 °C 1015.6 hPa NE 6.5 km/h 16.7 km/h 77.7% 0.0 mm
23:29 23.4 °C 19.3 °C 1015.6 hPa NNE 7.7 km/h 16.1 km/h 78% 0.0 mm
23:34 23.4 °C 19.4 °C 1015.6 hPa NNE 9.5 km/h 16.1 km/h 78.1% 0.0 mm
23:39 23.4 °C 19.5 °C 1015.4 hPa NE 9.5 km/h 16.1 km/h 79% 0.0 mm
23:44 23.3 °C 19.5 °C 1015.4 hPa NNE 9.5 km/h 14.8 km/h 79% 0.0 mm
23:49 23.3 °C 19.4 °C 1015.4 hPa NNE 9.5 km/h 14.8 km/h 79% 0.0 mm
23:54 23.3 °C 19.4 °C 1015.4 hPa NNE 9.5 km/h 14.8 km/h 79% 0.0 mm
23:59 23.3 °C 19.4 °C 1015.4 hPa NNE 9 km/h 14.5 km/h 79% 0.0 mm
Murcia-Puente Tocinos, España
Compliments of Weather Underground - 3 mb

La estación de MeteoMurcia.com, publica sus datos en los siguientes proyectos:

Weather Underground PWS IMURCIAP2 Meteoclimatic www.awekas.at

W3Counter
Web Analytics